sensor_id;sensor_type;location;lat;lon;timestamp;P1;durP1;ratioP1;P2;durP2;ratioP2
16115;SDS011;8162;47.104;15.432;2022-10-22T00:00:53;17.80;;;13.07;;
16115;SDS011;8162;47.104;15.432;2022-10-22T00:03:19;16.90;;;12.90;;
16115;SDS011;8162;47.104;15.432;2022-10-22T00:05:46;17.60;;;12.50;;
16115;SDS011;8162;47.104;15.432;2022-10-22T00:08:11;18.50;;;12.40;;
16115;SDS011;8162;47.104;15.432;2022-10-22T00:10:38;16.37;;;13.43;;
16115;SDS011;8162;47.104;15.432;2022-10-22T00:13:04;14.87;;;11.17;;
16115;SDS011;8162;47.104;15.432;2022-10-22T00:15:30;16.57;;;11.53;;
16115;SDS011;8162;47.104;15.432;2022-10-22T00:17:56;14.67;;;13.03;;
16115;SDS011;8162;47.104;15.432;2022-10-22T00:20:21;19.47;;;12.60;;
16115;SDS011;8162;47.104;15.432;2022-10-22T00:22:47;20.57;;;13.27;;
16115;SDS011;8162;47.104;15.432;2022-10-22T00:25:13;16.73;;;12.97;;
16115;SDS011;8162;47.104;15.432;2022-10-22T00:27:39;19.80;;;12.57;;
16115;SDS011;8162;47.104;15.432;2022-10-22T00:30:05;16.83;;;11.83;;
16115;SDS011;8162;47.104;15.432;2022-10-22T00:32:31;23.93;;;11.93;;
16115;SDS011;8162;47.104;15.432;2022-10-22T00:34:57;21.27;;;12.43;;
16115;SDS011;8162;47.104;15.432;2022-10-22T00:37:23;21.10;;;13.00;;
16115;SDS011;8162;47.104;15.432;2022-10-22T00:39:48;17.83;;;12.17;;
16115;SDS011;8162;47.104;15.432;2022-10-22T00:42:19;17.73;;;11.43;;
16115;SDS011;8162;47.104;15.432;2022-10-22T00:47:35;17.93;;;12.70;;
16115;SDS011;8162;47.104;15.432;2022-10-22T00:50:22;17.37;;;12.47;;
16115;SDS011;8162;47.104;15.432;2022-10-22T00:52:51;15.60;;;12.00;;
16115;SDS011;8162;47.104;15.432;2022-10-22T00:55:19;17.77;;;13.03;;
16115;SDS011;8162;47.104;15.432;2022-10-22T00:57:46;16.43;;;12.60;;
16115;SDS011;8162;47.104;15.432;2022-10-22T01:00:12;15.70;;;12.03;;
16115;SDS011;8162;47.104;15.432;2022-10-22T01:02:39;16.60;;;12.53;;
16115;SDS011;8162;47.104;15.432;2022-10-22T01:05:05;18.03;;;13.20;;
16115;SDS011;8162;47.104;15.432;2022-10-22T01:07:31;14.90;;;12.30;;
16115;SDS011;8162;47.104;15.432;2022-10-22T01:10:10;18.83;;;12.60;;
16115;SDS011;8162;47.104;15.432;2022-10-22T01:12:42;14.23;;;11.93;;
16115;SDS011;8162;47.104;15.432;2022-10-22T01:15:11;15.53;;;11.37;;
16115;SDS011;8162;47.104;15.432;2022-10-22T01:25:34;17.87;;;11.93;;
16115;SDS011;8162;47.104;15.432;2022-10-22T01:30:41;17.80;;;11.80;;
16115;SDS011;8162;47.104;15.432;2022-10-22T01:33:10;14.67;;;10.70;;
16115;SDS011;8162;47.104;15.432;2022-10-22T01:35:41;15.97;;;13.07;;
16115;SDS011;8162;47.104;15.432;2022-10-22T01:38:10;22.87;;;11.67;;
16115;SDS011;8162;47.104;15.432;2022-10-22T01:40:39;16.33;;;12.00;;
16115;SDS011;8162;47.104;15.432;2022-10-22T01:43:07;12.40;;;11.03;;
16115;SDS011;8162;47.104;15.432;2022-10-22T01:45:35;27.00;;;12.83;;
16115;SDS011;8162;47.104;15.432;2022-10-22T01:51:02;16.17;;;11.63;;
16115;SDS011;8162;47.104;15.432;2022-10-22T01:54:00;20.23;;;12.20;;
16115;SDS011;8162;47.104;15.432;2022-10-22T02:02:07;17.73;;;12.67;;
16115;SDS011;8162;47.104;15.432;2022-10-22T02:07:37;17.77;;;12.10;;
16115;SDS011;8162;47.104;15.432;2022-10-22T02:10:28;16.93;;;11.43;;
16115;SDS011;8162;47.104;15.432;2022-10-22T02:12:55;15.20;;;12.20;;
16115;SDS011;8162;47.104;15.432;2022-10-22T02:15:23;17.10;;;13.00;;
16115;SDS011;8162;47.104;15.432;2022-10-22T02:17:50;13.80;;;11.80;;
16115;SDS011;8162;47.104;15.432;2022-10-22T02:20:23;16.67;;;10.50;;
16115;SDS011;8162;47.104;15.432;2022-10-22T02:22:52;16.77;;;11.73;;
16115;SDS011;8162;47.104;15.432;2022-10-22T02:25:20;19.03;;;12.33;;
16115;SDS011;8162;47.104;15.432;2022-10-22T02:27:48;13.33;;;10.87;;
16115;SDS011;8162;47.104;15.432;2022-10-22T02:30:18;14.00;;;11.90;;
16115;SDS011;8162;47.104;15.432;2022-10-22T02:32:57;16.67;;;11.93;;
16115;SDS011;8162;47.104;15.432;2022-10-22T02:35:28;17.00;;;12.40;;
16115;SDS011;8162;47.104;15.432;2022-10-22T02:37:56;17.50;;;11.50;;
16115;SDS011;8162;47.104;15.432;2022-10-22T02:40:23;13.00;;;10.97;;
16115;SDS011;8162;47.104;15.432;2022-10-22T02:42:50;16.37;;;11.90;;
16115;SDS011;8162;47.104;15.432;2022-10-22T02:45:19;14.20;;;12.70;;
16115;SDS011;8162;47.104;15.432;2022-10-22T02:47:45;14.30;;;12.23;;
16115;SDS011;8162;47.104;15.432;2022-10-22T02:50:12;16.50;;;12.03;;
16115;SDS011;8162;47.104;15.432;2022-10-22T02:52:37;15.83;;;11.20;;
16115;SDS011;8162;47.104;15.432;2022-10-22T02:55:04;13.67;;;10.73;;
16115;SDS011;8162;47.104;15.432;2022-10-22T02:57:30;14.20;;;10.60;;
16115;SDS011;8162;47.104;15.432;2022-10-22T02:59:57;16.93;;;11.43;;
16115;SDS011;8162;47.104;15.432;2022-10-22T03:02:22;14.63;;;11.37;;
16115;SDS011;8162;47.104;15.432;2022-10-22T03:04:48;13.97;;;11.17;;
16115;SDS011;8162;47.104;15.432;2022-10-22T03:07:14;16.53;;;11.43;;
16115;SDS011;8162;47.104;15.432;2022-10-22T03:09:39;18.03;;;12.13;;
16115;SDS011;8162;47.104;15.432;2022-10-22T03:12:05;12.47;;;10.77;;
16115;SDS011;8162;47.104;15.432;2022-10-22T03:14:32;13.23;;;10.93;;
16115;SDS011;8162;47.104;15.432;2022-10-22T03:16:58;18.20;;;11.20;;
16115;SDS011;8162;47.104;15.432;2022-10-22T03:19:24;12.97;;;9.80;;
16115;SDS011;8162;47.104;15.432;2022-10-22T03:21:54;17.07;;;10.30;;
16115;SDS011;8162;47.104;15.432;2022-10-22T03:24:25;12.33;;;10.87;;
16115;SDS011;8162;47.104;15.432;2022-10-22T03:26:53;14.20;;;10.60;;
16115;SDS011;8162;47.104;15.432;2022-10-22T03:29:20;17.03;;;11.53;;
16115;SDS011;8162;47.104;15.432;2022-10-22T03:31:47;13.07;;;11.20;;
16115;SDS011;8162;47.104;15.432;2022-10-22T03:34:13;16.03;;;11.60;;
16115;SDS011;8162;47.104;15.432;2022-10-22T03:36:39;14.03;;;11.10;;
16115;SDS011;8162;47.104;15.432;2022-10-22T03:39:05;13.30;;;10.13;;
16115;SDS011;8162;47.104;15.432;2022-10-22T03:41:31;17.10;;;11.27;;
16115;SDS011;8162;47.104;15.432;2022-10-22T03:43:59;12.47;;;10.17;;
16115;SDS011;8162;47.104;15.432;2022-10-22T03:46:27;13.53;;;10.63;;
16115;SDS011;8162;47.104;15.432;2022-10-22T03:48:52;12.77;;;10.57;;
16115;SDS011;8162;47.104;15.432;2022-10-22T03:51:18;16.63;;;11.27;;
16115;SDS011;8162;47.104;15.432;2022-10-22T03:53:44;15.53;;;11.40;;
16115;SDS011;8162;47.104;15.432;2022-10-22T03:56:10;18.13;;;11.00;;
16115;SDS011;8162;47.104;15.432;2022-10-22T03:58:37;14.13;;;11.47;;
16115;SDS011;8162;47.104;15.432;2022-10-22T04:01:08;19.70;;;11.13;;
16115;SDS011;8162;47.104;15.432;2022-10-22T04:03:35;15.43;;;11.17;;
16115;SDS011;8162;47.104;15.432;2022-10-22T04:06:05;16.20;;;10.70;;
16115;SDS011;8162;47.104;15.432;2022-10-22T04:08:32;16.77;;;11.33;;
16115;SDS011;8162;47.104;15.432;2022-10-22T04:10:58;13.90;;;12.03;;
16115;SDS011;8162;47.104;15.432;2022-10-22T04:13:23;11.63;;;10.43;;
16115;SDS011;8162;47.104;15.432;2022-10-22T04:15:49;19.17;;;11.00;;
16115;SDS011;8162;47.104;15.432;2022-10-22T04:18:16;17.67;;;10.53;;
16115;SDS011;8162;47.104;15.432;2022-10-22T04:20:45;16.63;;;11.73;;
16115;SDS011;8162;47.104;15.432;2022-10-22T04:23:11;14.77;;;11.13;;
16115;SDS011;8162;47.104;15.432;2022-10-22T04:25:37;15.10;;;9.93;;
16115;SDS011;8162;47.104;15.432;2022-10-22T04:28:06;12.93;;;10.57;;
16115;SDS011;8162;47.104;15.432;2022-10-22T04:30:33;17.03;;;10.53;;
16115;SDS011;8162;47.104;15.432;2022-10-22T04:33:00;16.20;;;11.53;;
16115;SDS011;8162;47.104;15.432;2022-10-22T04:35:27;14.60;;;11.07;;
16115;SDS011;8162;47.104;15.432;2022-10-22T04:37:53;13.33;;;10.27;;
16115;SDS011;8162;47.104;15.432;2022-10-22T04:40:19;12.63;;;10.53;;
16115;SDS011;8162;47.104;15.432;2022-10-22T04:42:45;14.07;;;10.40;;
16115;SDS011;8162;47.104;15.432;2022-10-22T04:45:10;13.07;;;9.83;;
16115;SDS011;8162;47.104;15.432;2022-10-22T04:47:36;12.90;;;9.63;;
16115;SDS011;8162;47.104;15.432;2022-10-22T04:50:02;15.60;;;8.80;;
16115;SDS011;8162;47.104;15.432;2022-10-22T04:52:28;11.37;;;9.30;;
16115;SDS011;8162;47.104;15.432;2022-10-22T04:54:55;15.77;;;10.20;;
16115;SDS011;8162;47.104;15.432;2022-10-22T04:57:20;13.10;;;9.17;;
16115;SDS011;8162;47.104;15.432;2022-10-22T04:59:46;14.43;;;9.70;;
16115;SDS011;8162;47.104;15.432;2022-10-22T05:02:12;15.17;;;10.40;;
16115;SDS011;8162;47.104;15.432;2022-10-22T05:04:37;13.83;;;9.80;;
16115;SDS011;8162;47.104;15.432;2022-10-22T05:07:03;14.77;;;10.67;;
16115;SDS011;8162;47.104;15.432;2022-10-22T05:09:28;12.33;;;9.47;;
16115;SDS011;8162;47.104;15.432;2022-10-22T05:11:54;16.77;;;10.43;;
16115;SDS011;8162;47.104;15.432;2022-10-22T05:14:21;11.80;;;9.33;;
16115;SDS011;8162;47.104;15.432;2022-10-22T05:16:48;14.47;;;9.30;;
16115;SDS011;8162;47.104;15.432;2022-10-22T05:19:19;14.67;;;9.83;;
16115;SDS011;8162;47.104;15.432;2022-10-22T05:21:50;12.87;;;9.47;;
16115;SDS011;8162;47.104;15.432;2022-10-22T05:24:17;13.70;;;10.30;;
16115;SDS011;8162;47.104;15.432;2022-10-22T05:26:43;17.80;;;10.13;;
16115;SDS011;8162;47.104;15.432;2022-10-22T05:29:08;15.90;;;9.83;;
16115;SDS011;8162;47.104;15.432;2022-10-22T05:31:34;12.87;;;8.67;;
16115;SDS011;8162;47.104;15.432;2022-10-22T05:34:00;18.37;;;9.87;;
16115;SDS011;8162;47.104;15.432;2022-10-22T05:36:26;12.53;;;9.17;;
16115;SDS011;8162;47.104;15.432;2022-10-22T05:38:52;12.60;;;9.23;;
16115;SDS011;8162;47.104;15.432;2022-10-22T05:41:20;16.10;;;9.87;;
16115;SDS011;8162;47.104;15.432;2022-10-22T05:43:47;14.20;;;9.43;;
16115;SDS011;8162;47.104;15.432;2022-10-22T05:46:14;9.23;;;8.20;;
16115;SDS011;8162;47.104;15.432;2022-10-22T05:48:47;11.90;;;8.77;;
16115;SDS011;8162;47.104;15.432;2022-10-22T05:51:17;15.33;;;9.90;;
16115;SDS011;8162;47.104;15.432;2022-10-22T05:53:44;12.50;;;8.80;;
16115;SDS011;8162;47.104;15.432;2022-10-22T05:56:13;13.47;;;9.10;;
16115;SDS011;8162;47.104;15.432;2022-10-22T05:58:40;13.77;;;9.20;;
16115;SDS011;8162;47.104;15.432;2022-10-22T06:01:13;13.77;;;8.77;;
16115;SDS011;8162;47.104;15.432;2022-10-22T06:03:40;13.20;;;8.43;;
16115;SDS011;8162;47.104;15.432;2022-10-22T06:06:11;11.77;;;8.43;;
16115;SDS011;8162;47.104;15.432;2022-10-22T06:08:45;13.27;;;9.00;;
16115;SDS011;8162;47.104;15.432;2022-10-22T06:11:16;15.13;;;9.43;;
16115;SDS011;8162;47.104;15.432;2022-10-22T06:13:45;14.17;;;9.13;;
16115;SDS011;8162;47.104;15.432;2022-10-22T06:16:19;13.23;;;8.57;;
16115;SDS011;8162;47.104;15.432;2022-10-22T06:18:45;9.53;;;8.20;;
16115;SDS011;8162;47.104;15.432;2022-10-22T06:21:11;10.57;;;8.60;;
16115;SDS011;8162;47.104;15.432;2022-10-22T06:23:38;15.83;;;8.60;;
16115;SDS011;8162;47.104;15.432;2022-10-22T06:26:05;12.40;;;8.70;;
16115;SDS011;8162;47.104;15.432;2022-10-22T06:28:32;14.97;;;8.67;;
16115;SDS011;8162;47.104;15.432;2022-10-22T06:30:58;12.70;;;8.10;;
16115;SDS011;8162;47.104;15.432;2022-10-22T06:33:25;14.53;;;8.17;;
16115;SDS011;8162;47.104;15.432;2022-10-22T06:35:51;13.13;;;9.20;;
16115;SDS011;8162;47.104;15.432;2022-10-22T06:38:17;11.43;;;8.37;;
16115;SDS011;8162;47.104;15.432;2022-10-22T06:40:43;14.57;;;9.97;;
16115;SDS011;8162;47.104;15.432;2022-10-22T06:43:12;15.30;;;9.40;;
16115;SDS011;8162;47.104;15.432;2022-10-22T06:45:38;20.37;;;10.17;;
16115;SDS011;8162;47.104;15.432;2022-10-22T06:48:04;14.17;;;8.77;;
16115;SDS011;8162;47.104;15.432;2022-10-22T06:50:30;15.77;;;9.93;;
16115;SDS011;8162;47.104;15.432;2022-10-22T06:52:58;18.13;;;10.40;;
16115;SDS011;8162;47.104;15.432;2022-10-22T06:55:24;12.87;;;9.33;;
16115;SDS011;8162;47.104;15.432;2022-10-22T06:57:50;13.10;;;9.93;;
16115;SDS011;8162;47.104;15.432;2022-10-22T07:00:15;14.37;;;9.13;;
16115;SDS011;8162;47.104;15.432;2022-10-22T07:02:41;22.67;;;9.57;;
16115;SDS011;8162;47.104;15.432;2022-10-22T07:05:07;14.97;;;9.03;;
16115;SDS011;8162;47.104;15.432;2022-10-22T07:07:33;12.60;;;9.27;;
16115;SDS011;8162;47.104;15.432;2022-10-22T07:09:58;15.37;;;9.47;;
16115;SDS011;8162;47.104;15.432;2022-10-22T07:12:24;16.70;;;9.30;;
16115;SDS011;8162;47.104;15.432;2022-10-22T07:14:50;13.60;;;8.47;;
16115;SDS011;8162;47.104;15.432;2022-10-22T07:17:16;13.97;;;9.53;;
16115;SDS011;8162;47.104;15.432;2022-10-22T07:19:41;14.80;;;8.87;;
16115;SDS011;8162;47.104;15.432;2022-10-22T07:22:07;13.57;;;8.53;;
16115;SDS011;8162;47.104;15.432;2022-10-22T07:24:33;13.67;;;8.03;;
16115;SDS011;8162;47.104;15.432;2022-10-22T07:26:58;13.77;;;8.83;;
16115;SDS011;8162;47.104;15.432;2022-10-22T07:29:24;12.63;;;9.30;;
16115;SDS011;8162;47.104;15.432;2022-10-22T07:31:50;12.27;;;8.70;;
16115;SDS011;8162;47.104;15.432;2022-10-22T07:34:16;11.83;;;8.47;;
16115;SDS011;8162;47.104;15.432;2022-10-22T07:36:41;14.07;;;9.20;;
16115;SDS011;8162;47.104;15.432;2022-10-22T07:39:07;17.53;;;9.57;;
16115;SDS011;8162;47.104;15.432;2022-10-22T07:41:33;12.00;;;8.43;;
16115;SDS011;8162;47.104;15.432;2022-10-22T07:43:58;16.93;;;10.27;;
16115;SDS011;8162;47.104;15.432;2022-10-22T07:46:25;11.70;;;8.33;;
16115;SDS011;8162;47.104;15.432;2022-10-22T07:48:50;12.87;;;8.57;;
16115;SDS011;8162;47.104;15.432;2022-10-22T07:51:16;12.90;;;8.80;;
16115;SDS011;8162;47.104;15.432;2022-10-22T07:53:42;13.17;;;8.37;;
16115;SDS011;8162;47.104;15.432;2022-10-22T07:56:08;15.50;;;8.47;;
16115;SDS011;8162;47.104;15.432;2022-10-22T07:58:34;14.10;;;8.97;;
16115;SDS011;8162;47.104;15.432;2022-10-22T08:01:00;14.10;;;9.37;;
16115;SDS011;8162;47.104;15.432;2022-10-22T08:03:26;13.80;;;8.43;;
16115;SDS011;8162;47.104;15.432;2022-10-22T08:05:53;12.57;;;8.43;;
16115;SDS011;8162;47.104;15.432;2022-10-22T08:08:19;13.60;;;8.97;;
16115;SDS011;8162;47.104;15.432;2022-10-22T08:10:46;16.90;;;8.17;;
16115;SDS011;8162;47.104;15.432;2022-10-22T08:13:14;16.60;;;9.10;;
16115;SDS011;8162;47.104;15.432;2022-10-22T08:15:41;13.60;;;8.90;;
16115;SDS011;8162;47.104;15.432;2022-10-22T08:18:07;13.67;;;9.37;;
16115;SDS011;8162;47.104;15.432;2022-10-22T08:20:33;18.90;;;9.57;;
16115;SDS011;8162;47.104;15.432;2022-10-22T08:22:58;12.73;;;9.70;;
16115;SDS011;8162;47.104;15.432;2022-10-22T08:25:24;13.03;;;8.70;;
16115;SDS011;8162;47.104;15.432;2022-10-22T08:27:50;15.67;;;10.23;;
16115;SDS011;8162;47.104;15.432;2022-10-22T08:30:16;17.07;;;9.33;;
16115;SDS011;8162;47.104;15.432;2022-10-22T08:32:42;14.23;;;9.53;;
16115;SDS011;8162;47.104;15.432;2022-10-22T08:35:08;15.17;;;9.77;;
16115;SDS011;8162;47.104;15.432;2022-10-22T08:37:34;15.57;;;9.93;;
16115;SDS011;8162;47.104;15.432;2022-10-22T08:40:00;14.27;;;9.93;;
16115;SDS011;8162;47.104;15.432;2022-10-22T08:50:32;19.23;;;9.87;;
16115;SDS011;8162;47.104;15.432;2022-10-22T08:53:04;13.77;;;10.23;;
16115;SDS011;8162;47.104;15.432;2022-10-22T08:55:36;14.30;;;9.97;;
16115;SDS011;8162;47.104;15.432;2022-10-22T08:58:07;17.27;;;10.40;;
16115;SDS011;8162;47.104;15.432;2022-10-22T09:00:43;15.37;;;10.37;;
16115;SDS011;8162;47.104;15.432;2022-10-22T09:03:28;14.43;;;10.70;;
16115;SDS011;8162;47.104;15.432;2022-10-22T09:08:32;11.97;;;9.67;;
16115;SDS011;8162;47.104;15.432;2022-10-22T09:13:31;14.50;;;10.70;;
16115;SDS011;8162;47.104;15.432;2022-10-22T09:16:09;13.10;;;9.40;;
16115;SDS011;8162;47.104;15.432;2022-10-22T09:18:39;15.83;;;10.43;;
16115;SDS011;8162;47.104;15.432;2022-10-22T09:21:15;14.13;;;11.73;;
16115;SDS011;8162;47.104;15.432;2022-10-22T09:24:03;18.03;;;12.50;;
16115;SDS011;8162;47.104;15.432;2022-10-22T09:26:35;15.03;;;11.87;;
16115;SDS011;8162;47.104;15.432;2022-10-22T09:29:03;14.83;;;11.30;;
16115;SDS011;8162;47.104;15.432;2022-10-22T09:31:30;14.80;;;11.33;;
16115;SDS011;8162;47.104;15.432;2022-10-22T09:33:57;11.97;;;9.67;;
16115;SDS011;8162;47.104;15.432;2022-10-22T09:36:30;16.63;;;10.67;;
16115;SDS011;8162;47.104;15.432;2022-10-22T09:38:56;13.53;;;10.17;;
16115;SDS011;8162;47.104;15.432;2022-10-22T09:41:26;11.87;;;8.83;;
16115;SDS011;8162;47.104;15.432;2022-10-22T09:43:54;14.37;;;9.80;;
16115;SDS011;8162;47.104;15.432;2022-10-22T09:46:21;15.90;;;10.33;;
16115;SDS011;8162;47.104;15.432;2022-10-22T09:51:26;17.37;;;10.40;;
16115;SDS011;8162;47.104;15.432;2022-10-22T09:54:01;16.40;;;10.80;;
16115;SDS011;8162;47.104;15.432;2022-10-22T09:56:40;16.37;;;10.40;;
16115;SDS011;8162;47.104;15.432;2022-10-22T09:59:17;15.90;;;10.47;;
16115;SDS011;8162;47.104;15.432;2022-10-22T10:01:54;17.03;;;10.23;;
16115;SDS011;8162;47.104;15.432;2022-10-22T10:04:24;13.17;;;10.10;;
16115;SDS011;8162;47.104;15.432;2022-10-22T10:06:52;16.27;;;11.07;;
16115;SDS011;8162;47.104;15.432;2022-10-22T10:09:21;16.07;;;11.60;;
16115;SDS011;8162;47.104;15.432;2022-10-22T10:14:28;16.93;;;10.37;;
16115;SDS011;8162;47.104;15.432;2022-10-22T10:26:06;14.87;;;11.27;;
16115;SDS011;8162;47.104;15.432;2022-10-22T10:28:48;13.43;;;8.83;;
16115;SDS011;8162;47.104;15.432;2022-10-22T10:34:14;20.67;;;11.07;;
16115;SDS011;8162;47.104;15.432;2022-10-22T10:42:47;13.80;;;9.73;;
16115;SDS011;8162;47.104;15.432;2022-10-22T10:45:20;12.40;;;9.50;;
16115;SDS011;8162;47.104;15.432;2022-10-22T10:50:56;13.97;;;10.90;;
16115;SDS011;8162;47.104;15.432;2022-10-22T10:56:53;11.70;;;9.37;;
16115;SDS011;8162;47.104;15.432;2022-10-22T10:59:30;15.60;;;10.83;;
16115;SDS011;8162;47.104;15.432;2022-10-22T11:02:23;12.57;;;9.20;;
16115;SDS011;8162;47.104;15.432;2022-10-22T11:07:39;17.90;;;11.07;;
16115;SDS011;8162;47.104;15.432;2022-10-22T11:12:56;17.50;;;11.63;;
16115;SDS011;8162;47.104;15.432;2022-10-22T11:15:38;20.53;;;13.50;;
16115;SDS011;8162;47.104;15.432;2022-10-22T11:18:38;16.40;;;12.33;;
16115;SDS011;8162;47.104;15.432;2022-10-22T11:26:49;22.13;;;13.70;;
16115;SDS011;8162;47.104;15.432;2022-10-22T11:29:21;16.93;;;11.90;;
16115;SDS011;8162;47.104;15.432;2022-10-22T11:31:50;17.13;;;11.20;;
16115;SDS011;8162;47.104;15.432;2022-10-22T11:34:24;13.70;;;12.23;;
16115;SDS011;8162;47.104;15.432;2022-10-22T11:37:03;23.00;;;13.00;;
16115;SDS011;8162;47.104;15.432;2022-10-22T11:39:44;12.67;;;10.83;;
16115;SDS011;8162;47.104;15.432;2022-10-22T11:42:21;16.77;;;11.57;;
16115;SDS011;8162;47.104;15.432;2022-10-22T11:47:34;18.37;;;11.80;;
16115;SDS011;8162;47.104;15.432;2022-10-22T11:50:25;16.50;;;12.10;;
16115;SDS011;8162;47.104;15.432;2022-10-22T11:58:28;20.17;;;13.20;;
16115;SDS011;8162;47.104;15.432;2022-10-22T12:03:40;18.30;;;12.43;;
16115;SDS011;8162;47.104;15.432;2022-10-22T12:16:43;16.57;;;12.67;;
16115;SDS011;8162;47.104;15.432;2022-10-22T12:19:13;17.37;;;12.43;;
16115;SDS011;8162;47.104;15.432;2022-10-22T12:24:46;18.90;;;13.57;;
16115;SDS011;8162;47.104;15.432;2022-10-22T12:27:20;18.63;;;13.20;;
16115;SDS011;8162;47.104;15.432;2022-10-22T12:29:46;21.87;;;13.97;;
16115;SDS011;8162;47.104;15.432;2022-10-22T12:32:14;29.57;;;15.17;;
16115;SDS011;8162;47.104;15.432;2022-10-22T12:34:47;18.83;;;14.83;;
16115;SDS011;8162;47.104;15.432;2022-10-22T12:37:15;19.97;;;13.40;;
16115;SDS011;8162;47.104;15.432;2022-10-22T12:39:42;19.53;;;14.47;;
16115;SDS011;8162;47.104;15.432;2022-10-22T12:42:11;20.43;;;13.87;;
16115;SDS011;8162;47.104;15.432;2022-10-22T12:44:39;20.03;;;14.87;;
16115;SDS011;8162;47.104;15.432;2022-10-22T12:47:05;21.90;;;15.10;;
16115;SDS011;8162;47.104;15.432;2022-10-22T12:49:38;21.90;;;15.20;;
16115;SDS011;8162;47.104;15.432;2022-10-22T12:52:07;23.23;;;16.77;;
16115;SDS011;8162;47.104;15.432;2022-10-22T12:54:47;21.17;;;16.03;;
16115;SDS011;8162;47.104;15.432;2022-10-22T12:57:16;22.30;;;16.63;;
16115;SDS011;8162;47.104;15.432;2022-10-22T12:59:45;21.97;;;15.50;;
16115;SDS011;8162;47.104;15.432;2022-10-22T13:02:21;26.07;;;16.37;;
16115;SDS011;8162;47.104;15.432;2022-10-22T13:07:45;21.93;;;15.60;;
16115;SDS011;8162;47.104;15.432;2022-10-22T13:10:14;24.33;;;16.10;;
16115;SDS011;8162;47.104;15.432;2022-10-22T13:12:48;29.73;;;16.90;;
16115;SDS011;8162;47.104;15.432;2022-10-22T13:20:54;23.10;;;16.30;;
16115;SDS011;8162;47.104;15.432;2022-10-22T13:23:26;29.77;;;18.60;;
16115;SDS011;8162;47.104;15.432;2022-10-22T13:25:58;31.00;;;22.60;;
16115;SDS011;8162;47.104;15.432;2022-10-22T13:28:26;29.37;;;19.03;;
16115;SDS011;8162;47.104;15.432;2022-10-22T13:30:58;29.57;;;19.60;;
16115;SDS011;8162;47.104;15.432;2022-10-22T13:33:35;32.67;;;20.60;;
16115;SDS011;8162;47.104;15.432;2022-10-22T13:36:04;30.60;;;19.00;;
16115;SDS011;8162;47.104;15.432;2022-10-22T13:38:30;30.70;;;21.73;;
16115;SDS011;8162;47.104;15.432;2022-10-22T13:40:56;28.43;;;20.03;;
16115;SDS011;8162;47.104;15.432;2022-10-22T13:43:23;31.03;;;19.87;;
16115;SDS011;8162;47.104;15.432;2022-10-22T13:45:58;26.33;;;19.80;;
16115;SDS011;8162;47.104;15.432;2022-10-22T13:48:25;24.37;;;18.77;;
16115;SDS011;8162;47.104;15.432;2022-10-22T13:50:53;26.57;;;17.97;;
16115;SDS011;8162;47.104;15.432;2022-10-22T13:53:20;28.80;;;19.47;;
16115;SDS011;8162;47.104;15.432;2022-10-22T13:55:49;24.47;;;17.27;;
16115;SDS011;8162;47.104;15.432;2022-10-22T13:58:16;28.37;;;17.50;;
16115;SDS011;8162;47.104;15.432;2022-10-22T14:00:53;25.17;;;17.43;;
16115;SDS011;8162;47.104;15.432;2022-10-22T14:03:21;22.90;;;18.00;;
16115;SDS011;8162;47.104;15.432;2022-10-22T14:05:50;28.97;;;17.23;;
16115;SDS011;8162;47.104;15.432;2022-10-22T14:08:17;31.27;;;18.70;;
16115;SDS011;8162;47.104;15.432;2022-10-22T14:10:44;25.17;;;16.17;;
16115;SDS011;8162;47.104;15.432;2022-10-22T14:13:11;29.63;;;18.47;;
16115;SDS011;8162;47.104;15.432;2022-10-22T14:15:38;21.37;;;16.50;;
16115;SDS011;8162;47.104;15.432;2022-10-22T14:18:05;27.47;;;19.00;;
16115;SDS011;8162;47.104;15.432;2022-10-22T14:20:33;26.47;;;17.37;;
16115;SDS011;8162;47.104;15.432;2022-10-22T14:23:12;23.07;;;16.50;;
16115;SDS011;8162;47.104;15.432;2022-10-22T14:25:45;24.47;;;16.90;;
16115;SDS011;8162;47.104;15.432;2022-10-22T14:28:12;22.93;;;16.33;;
16115;SDS011;8162;47.104;15.432;2022-10-22T14:30:38;25.53;;;17.73;;
16115;SDS011;8162;47.104;15.432;2022-10-22T14:33:17;26.50;;;18.53;;
16115;SDS011;8162;47.104;15.432;2022-10-22T14:35:47;29.00;;;18.17;;
16115;SDS011;8162;47.104;15.432;2022-10-22T14:38:14;28.37;;;19.33;;
16115;SDS011;8162;47.104;15.432;2022-10-22T14:40:40;28.37;;;17.83;;
16115;SDS011;8162;47.104;15.432;2022-10-22T14:43:28;26.87;;;18.57;;
16115;SDS011;8162;47.104;15.432;2022-10-22T14:45:55;24.60;;;16.80;;
16115;SDS011;8162;47.104;15.432;2022-10-22T14:48:21;32.77;;;18.80;;
16115;SDS011;8162;47.104;15.432;2022-10-22T14:50:47;34.83;;;21.10;;
16115;SDS011;8162;47.104;15.432;2022-10-22T14:53:13;31.30;;;18.97;;
16115;SDS011;8162;47.104;15.432;2022-10-22T14:55:40;40.83;;;20.07;;
16115;SDS011;8162;47.104;15.432;2022-10-22T14:58:08;39.87;;;19.60;;
16115;SDS011;8162;47.104;15.432;2022-10-22T15:00:35;38.50;;;19.77;;
16115;SDS011;8162;47.104;15.432;2022-10-22T15:03:01;33.73;;;19.73;;
16115;SDS011;8162;47.104;15.432;2022-10-22T15:05:27;44.17;;;22.00;;
16115;SDS011;8162;47.104;15.432;2022-10-22T15:07:53;32.00;;;19.23;;
16115;SDS011;8162;47.104;15.432;2022-10-22T15:10:19;41.17;;;21.73;;
16115;SDS011;8162;47.104;15.432;2022-10-22T15:12:45;33.37;;;18.60;;
16115;SDS011;8162;47.104;15.432;2022-10-22T15:15:10;30.03;;;20.00;;
16115;SDS011;8162;47.104;15.432;2022-10-22T15:17:36;29.60;;;18.37;;
16115;SDS011;8162;47.104;15.432;2022-10-22T15:20:03;38.23;;;19.03;;
16115;SDS011;8162;47.104;15.432;2022-10-22T15:22:30;26.57;;;16.70;;
16115;SDS011;8162;47.104;15.432;2022-10-22T15:24:59;29.43;;;17.30;;
16115;SDS011;8162;47.104;15.432;2022-10-22T15:27:26;44.00;;;18.97;;
16115;SDS011;8162;47.104;15.432;2022-10-22T15:29:52;26.90;;;17.00;;
16115;SDS011;8162;47.104;15.432;2022-10-22T15:32:17;32.83;;;18.87;;
16115;SDS011;8162;47.104;15.432;2022-10-22T15:34:43;28.03;;;17.87;;
16115;SDS011;8162;47.104;15.432;2022-10-22T15:37:10;33.30;;;18.10;;
16115;SDS011;8162;47.104;15.432;2022-10-22T15:39:38;33.13;;;18.53;;
16115;SDS011;8162;47.104;15.432;2022-10-22T15:42:04;33.83;;;21.40;;
16115;SDS011;8162;47.104;15.432;2022-10-22T15:44:31;33.27;;;20.20;;
16115;SDS011;8162;47.104;15.432;2022-10-22T15:46:57;30.00;;;20.97;;
16115;SDS011;8162;47.104;15.432;2022-10-22T15:49:23;29.13;;;21.03;;
16115;SDS011;8162;47.104;15.432;2022-10-22T15:51:50;37.73;;;22.50;;
16115;SDS011;8162;47.104;15.432;2022-10-22T15:54:18;35.63;;;22.00;;
16115;SDS011;8162;47.104;15.432;2022-10-22T15:56:45;34.93;;;22.23;;
16115;SDS011;8162;47.104;15.432;2022-10-22T15:59:12;32.43;;;21.67;;
16115;SDS011;8162;47.104;15.432;2022-10-22T16:01:39;31.50;;;21.73;;
16115;SDS011;8162;47.104;15.432;2022-10-22T16:04:06;39.23;;;22.13;;
16115;SDS011;8162;47.104;15.432;2022-10-22T16:06:34;29.63;;;21.47;;
16115;SDS011;8162;47.104;15.432;2022-10-22T16:09:03;30.30;;;20.67;;
16115;SDS011;8162;47.104;15.432;2022-10-22T16:11:32;26.53;;;19.13;;
16115;SDS011;8162;47.104;15.432;2022-10-22T16:13:58;33.97;;;20.00;;
16115;SDS011;8162;47.104;15.432;2022-10-22T16:16:25;28.53;;;19.33;;
16115;SDS011;8162;47.104;15.432;2022-10-22T16:18:53;32.77;;;18.60;;
16115;SDS011;8162;47.104;15.432;2022-10-22T16:21:20;34.37;;;19.97;;
16115;SDS011;8162;47.104;15.432;2022-10-22T16:23:47;30.43;;;21.40;;
16115;SDS011;8162;47.104;15.432;2022-10-22T16:26:13;31.50;;;21.93;;